• Join FlightAware (Why Join?)
  • Login
  • US Flag 
02:21AM EDT


 

Airport Tracker/Info


-or-


 

Live Flight TrackerFlight Track Log ✈ DAL2191 ✈ 02-May-2013 ✈ KATL - KTPA

Flight Track Log - Related Links

Times and Time Zones

All times are in EDT time to prevent confusion due to time zone crossing. See the DAL2191 flight status page for this flight to view local times or setup timezone preferences in your user account.

Time Position Orientation Groundspeed Altitude Reporting Facility
EDT Latitude Longitude Course Direction KTS MPH feet Rate Location/Type
12:54PM 33.6333 -84.3833 194° South 174 200 2,700  Level Atlanta TRACON
12:55PM 33.6167 -84.3167 107° East 229 264 5,100 2,220 Climbing Atlanta TRACON
12:56PM 33.3935 -84.2832 194° South  Level FlightAware Approximate
12:57PM 33.2826 -84.3156 194° South  Level FlightAware Approximate
12:57PM 33.4864 -84.2667 180° South  Level FlightAware Approximate
12:57PM 33.4767 -84.2778 180° South 275 316 9,900  Level Atlanta Center
12:58PM 33.1717 -84.3479 194° South  Level FlightAware Approximate
12:58PM 33.3869 -84.2950 189° South 302 348 10,300  Level Atlanta Center
12:59PM 33.0609 -84.3802 194° South  Level FlightAware Approximate
12:59PM 33.2847 -84.3294 196° South 351 404 12,300  Level Atlanta Center
01:00PM 33.1761 -84.3614 194° South 397 457 15,000 2,520 Climbing Atlanta Center
01:01PM 33.0611 -84.3908 192° South 417 480 17,400 3,000 Climbing Atlanta Center
01:02PM 32.9503 -84.4175 191° South 422 486 21,100 2,340 Climbing Atlanta Center
01:03PM 32.8356 -84.4194 181° South 412 474 22,100 1,140 Climbing Atlanta Center
01:04PM 32.7083 -84.4142 178° South 431 496 23,400 1,500 Climbing Atlanta Center
01:05PM 32.5789 -84.4136 180° South 449 517 25,100 1,680 Climbing Atlanta Center
01:06PM 32.4494 -84.4131 180° South 465 535 26,800 1,740 Climbing Atlanta Center
01:07PM 32.3158 -84.4100 179° South 470 541 28,600 1,800 Climbing Atlanta Center
01:08PM 32.1886 -84.4044 178° South 475 547 30,400 1,620 Climbing Atlanta Center
01:09PM 32.0592 -84.4039 180° South 475 547 31,900 1,260 Climbing Atlanta Center
01:10PM 31.9297 -84.4011 179° South 475 547 33,000 720 Climbing Atlanta Center
01:11PM 31.8758 -84.3997 179° South 474 545 33,000  Level Jacksonville Center
01:12PM 31.7464 -84.3975 179° South 474 545 33,000  Level Jacksonville Center
01:13PM 31.6147 -84.3953 179° South 474 545 33,000  Level Jacksonville Center
01:14PM 31.4875 -84.3933 179° South 474 545 33,000  Level Jacksonville Center
01:15PM 31.3581 -84.3914 179° South 474 545 33,000  Level Jacksonville Center
01:16PM 31.2306 -84.3892 179° South 469 540 33,000  Level Jacksonville Center
01:17PM 31.1014 -84.3872 179° South 469 540 33,000  Level Jacksonville Center
01:18PM 30.9761 -84.3828 178° South 462 532 33,000  Level Jacksonville Center
01:19PM 30.8467 -84.3808 179° South 457 526 33,000  Level Jacksonville Center
01:20PM 30.7214 -84.3764 178° South 457 526 33,000  Level Jacksonville Center
01:21PM 30.5942 -84.3767 180° South 457 526 33,000  Level Jacksonville Center
01:22PM 30.4756 -84.3219 158° South 445 512 33,000  Level Jacksonville Center
01:23PM 30.3636 -84.2456 150° Southeast 456 525 33,000  Level Jacksonville Center
01:24PM 30.2539 -84.1767 152° Southeast 456 525 33,000  Level Jacksonville Center
01:25PM 30.1417 -84.1056 151° Southeast 456 525 33,000  Level Jacksonville Center
01:26PM 30.0275 -84.0322 151° Southeast 456 525 33,000 -60 Level Jacksonville Center
01:27PM 29.9133 -83.9589 151° Southeast 456 525 32,900  Descending Jacksonville Center
01:28PM 29.8011 -83.8883 151° Southeast 456 525 33,000  Climbing Jacksonville Center
01:29PM 29.6911 -83.8156 150° Southeast 456 525 33,000 -60 Level Jacksonville Center
01:30PM 29.5747 -83.7428 151° Southeast 456 525 32,900  Descending Jacksonville Center
01:31PM 29.4625 -83.6703 151° Southeast 456 525 33,000 -720 Climbing Jacksonville Center
01:32PM 29.3503 -83.5978 151° Southeast 456 525 31,500 -2,580 Descending Jacksonville Center
01:33PM 29.2378 -83.5256 151° Southeast 456 525 27,900 -3,000 Descending Jacksonville Center
01:34PM 29.1275 -83.4536 150° Southeast 461 531 25,600 -2,400 Descending Jacksonville Center
01:35PM 29.0172 -83.3842 151° Southeast 449 517 23,100 -1,560 Descending Jacksonville Center
01:36PM 28.9025 -83.3122 151° Southeast 460 529 22,500 -1,620 Descending Jacksonville Center
01:37PM 28.7922 -83.2408 150° Southeast 460 529 19,900 -2,640 Descending Jacksonville Center
01:39PM 28.5667 -83.1000 151° Southeast 395 455 14,200 -2,100 Descending Tampa TRACON
01:40PM 28.4833 -83.0500 152° Southeast 376 433 13,400 -600 Descending Tampa TRACON
01:41PM 28.4000 -82.9833 145° Southeast 320 368 13,000 -240 Descending Tampa TRACON
01:42PM 28.3167 -82.9500 161° South 311 358 13,000 -540 Level Tampa TRACON
01:43PM 28.2667 -82.8833 130° Southeast 264 304 12,000 -1,500 Descending Tampa TRACON
01:44PM 28.2667 -82.8000 90° East 255 293 10,000 -2,040 Descending Tampa TRACON
01:45PM 28.2833 -82.7167 77° East 252 290 8,000 -1,800 Descending Tampa TRACON
01:46PM 28.2667 -82.6500 106° East 242 278 6,400 -1,560 Descending Tampa TRACON
01:47PM 28.2500 -82.5833 106° East 229 264 4,900 -1,620 Descending Tampa TRACON
01:48PM 28.2000 -82.5500 150° Southeast 216 249 3,200 -960 Descending Tampa TRACON
01:49PM 28.1333 -82.5333 168° South 187 215 3,000 -240 Descending Tampa TRACON